createdAt,value
2023-08-09T00:03:18.534Z,966.4
2023-08-09T00:08:01.104Z,966.5
2023-08-09T00:12:43.835Z,966.4
2023-08-09T00:17:26.545Z,966.5
2023-08-09T00:22:09.320Z,966.6
2023-08-09T00:26:52.043Z,966.7
2023-08-09T00:31:34.748Z,966.6
2023-08-09T00:36:17.474Z,966.7
2023-08-09T00:41:00.201Z,966.7
2023-08-09T00:45:42.971Z,966.7
2023-08-09T00:50:25.681Z,966.6
2023-08-09T00:55:08.456Z,966.7
2023-08-09T00:59:51.096Z,966.7
2023-08-09T01:09:16.562Z,966.5
2023-08-09T01:13:59.316Z,966.5
2023-08-09T01:18:42.111Z,966.4
2023-08-09T01:23:24.775Z,966.4
2023-08-09T01:28:07.522Z,966.4
2023-08-09T01:32:50.230Z,966.3
2023-08-09T01:37:33.039Z,966.3
2023-08-09T01:42:15.040Z,966.3
2023-08-09T01:46:57.715Z,966.3
2023-08-09T01:51:40.443Z,966.3
2023-08-09T01:56:23.156Z,966.3
2023-08-09T02:01:05.954Z,966.3
2023-08-09T02:05:48.619Z,966.3
2023-08-09T02:10:30.672Z,966.3
2023-08-09T02:19:55.410Z,966.1
2023-08-09T02:24:38.144Z,966
2023-08-09T02:29:20.842Z,966
2023-08-09T02:34:03.603Z,966
2023-08-09T02:38:46.375Z,966
2023-08-09T02:43:29.082Z,966
2023-08-09T02:48:11.766Z,966
2023-08-09T02:52:54.523Z,965.9
2023-08-09T02:57:37.235Z,965.8
2023-08-09T03:02:19.979Z,965.7
2023-08-09T03:07:02.737Z,965.8
2023-08-09T03:11:45.452Z,965.8
2023-08-09T03:16:27.439Z,965.8
2023-08-09T03:21:10.255Z,965.9
2023-08-09T03:25:52.957Z,965.9
2023-08-09T03:30:35.669Z,966
2023-08-09T03:35:18.333Z,966.1
2023-08-09T03:40:01.112Z,966
2023-08-09T03:44:43.865Z,966
2023-08-09T03:49:26.580Z,966.2
2023-08-09T03:54:09.292Z,966.1
2023-08-09T03:58:52.096Z,966.1
2023-08-09T04:03:34.804Z,966.1
2023-08-09T04:08:17.472Z,966.1
2023-08-09T04:13:00.208Z,966.1
2023-08-09T04:17:42.925Z,966.1
2023-08-09T04:22:25.653Z,966.2
2023-08-09T04:27:08.528Z,966.1
2023-08-09T04:31:51.131Z,966.1
2023-08-09T04:41:16.650Z,966.3
2023-08-09T04:45:59.329Z,966.2
2023-08-09T04:50:42.085Z,966.3
2023-08-09T04:55:24.863Z,966.3
2023-08-09T05:00:07.568Z,966.2
2023-08-09T05:04:50.278Z,966.2
2023-08-09T05:09:33.006Z,966.3
2023-08-09T05:18:58.484Z,966.3
2023-08-09T05:23:41.193Z,966.3
2023-08-09T05:28:24.011Z,966.3
2023-08-09T05:37:49.422Z,966.3
2023-08-09T05:42:32.097Z,966.2
2023-08-09T05:51:57.633Z,966.3
2023-08-09T05:56:40.335Z,966.5
2023-08-09T06:01:23.029Z,966.4
2023-08-09T06:06:05.745Z,966.4
2023-08-09T06:10:49.046Z,966.5
2023-08-09T06:15:31.854Z,966.4
2023-08-09T06:20:15.148Z,966.5
2023-08-09T06:24:58.406Z,966.5
2023-08-09T06:29:41.667Z,966.5
2023-08-09T06:34:24.903Z,966.5
2023-08-09T06:39:08.273Z,966.4
2023-08-09T06:43:51.478Z,966.5
2023-08-09T06:48:34.779Z,966.6
2023-08-09T06:53:18.439Z,966.7
2023-08-09T06:58:01.537Z,966.7
2023-08-09T07:02:44.926Z,966.7
2023-08-09T07:07:27.881Z,966.6
2023-08-09T07:12:11.054Z,966.7
2023-08-09T07:16:54.716Z,966.6
2023-08-09T07:21:37.650Z,966.6
2023-08-09T07:31:03.689Z,966.6
2023-08-09T07:35:46.933Z,966.6
2023-08-09T07:40:30.210Z,966.7
2023-08-09T07:45:13.492Z,966.7
2023-08-09T07:49:56.789Z,966.8
2023-08-09T07:54:40.075Z,966.9
2023-08-09T07:59:23.291Z,967
2023-08-09T08:04:06.975Z,967
2023-08-09T08:08:50.134Z,967.1
2023-08-09T08:13:33.268Z,967.1
2023-08-09T08:18:16.766Z,967.1
2023-08-09T08:22:59.595Z,967.1
2023-08-09T08:27:43.303Z,967.2
2023-08-09T08:32:26.301Z,967.3
2023-08-09T08:37:09.684Z,967.2
2023-08-09T08:41:53.027Z,967.3
2023-08-09T08:51:19.211Z,967.2
2023-08-09T08:56:02.591Z,967.2
2023-08-09T09:00:45.447Z,967.1
2023-08-09T09:05:28.545Z,967.1
2023-08-09T09:10:11.905Z,967
2023-08-09T09:14:54.887Z,967.2
2023-08-09T09:19:38.394Z,967.1
2023-08-09T09:24:21.390Z,967.1
2023-08-09T09:29:03.908Z,967.1
2023-08-09T09:33:47.583Z,967.1
2023-08-09T09:38:30.650Z,967
2023-08-09T09:43:14.015Z,966.9
2023-08-09T09:47:57.079Z,966.9
2023-08-09T09:52:40.359Z,967
2023-08-09T09:57:23.642Z,966.9
2023-08-09T10:02:06.458Z,966.9
2023-08-09T10:06:49.703Z,966.8
2023-08-09T10:11:32.536Z,966.9
2023-08-09T10:16:15.593Z,966.8
2023-08-09T10:20:58.713Z,966.9
2023-08-09T10:25:41.668Z,966.9
2023-08-09T10:30:25.235Z,966.8
2023-08-09T10:35:08.316Z,966.7
2023-08-09T10:39:51.456Z,966.6
2023-08-09T10:44:35.053Z,966.8
2023-08-09T10:49:18.205Z,966.6
2023-08-09T10:54:01.516Z,966.7
2023-08-09T10:58:44.907Z,966.5
2023-08-09T11:03:27.964Z,966.5
2023-08-09T11:08:11.398Z,966.5
2023-08-09T11:12:54.552Z,966.5
2023-08-09T11:17:38.044Z,966.5
2023-08-09T11:27:03.755Z,966.6
2023-08-09T11:31:47.147Z,966.5
2023-08-09T11:36:30.222Z,966.5
2023-08-09T11:41:13.807Z,966.4
2023-08-09T11:45:56.932Z,966.4
2023-08-09T11:50:40.071Z,966.4
2023-08-09T11:55:23.429Z,966.6
2023-08-09T12:00:06.606Z,966.6
2023-08-09T12:09:31.666Z,966.8
2023-08-09T12:14:14.419Z,966.8
2023-08-09T12:18:56.526Z,967.1
2023-08-09T12:23:39.147Z,967.1
2023-08-09T12:28:22.065Z,967.1
2023-08-09T12:33:04.685Z,967.2
2023-08-09T12:37:47.303Z,967.2
2023-08-09T12:42:30.083Z,967.2
2023-08-09T12:47:12.968Z,967.2
2023-08-09T12:51:55.601Z,967.2
2023-08-09T12:56:38.265Z,967.4
2023-08-09T13:01:21.054Z,967.4
2023-08-09T13:06:03.837Z,967.6
2023-08-09T13:10:46.482Z,967.5
2023-08-09T13:15:29.212Z,967.5
2023-08-09T13:20:11.267Z,967.6
2023-08-09T13:24:53.900Z,967.7
2023-08-09T13:29:36.748Z,967.7
2023-08-09T13:34:19.436Z,967.7
2023-08-09T13:39:02.161Z,967.8
2023-08-09T13:43:44.859Z,967.8
2023-08-09T13:48:27.635Z,967.8
2023-08-09T13:53:10.442Z,967.8
2023-08-09T13:57:52.221Z,967.8
2023-08-09T14:07:17.134Z,967.9
2023-08-09T14:11:59.550Z,968
2023-08-09T14:16:42.067Z,968
2023-08-09T14:21:24.703Z,968
2023-08-09T14:26:07.059Z,968
2023-08-09T14:35:31.147Z,968
2023-08-09T14:40:13.606Z,968
2023-08-09T14:44:56.137Z,968
2023-08-09T14:49:38.600Z,968
2023-08-09T14:54:21.050Z,968
2023-08-09T14:59:03.504Z,968.1
2023-08-09T15:03:46.012Z,968.2
2023-08-09T15:08:28.531Z,968.3
2023-08-09T15:13:11.049Z,968.3
2023-08-09T15:17:52.748Z,968.4
2023-08-09T15:22:34.232Z,968.4
2023-08-09T15:27:16.732Z,968.4
2023-08-09T15:31:59.132Z,968.4
2023-08-09T15:41:24.300Z,968.5
2023-08-09T15:46:06.744Z,968.5
2023-08-09T15:50:49.226Z,968.5
2023-08-09T15:55:31.832Z,968.4
2023-08-09T16:00:14.164Z,968.5
2023-08-09T16:04:56.588Z,968.6
2023-08-09T16:09:39.077Z,968.6
2023-08-09T16:14:21.648Z,968.7
2023-08-09T16:19:03.990Z,968.8
2023-08-09T16:28:29.119Z,968.9
2023-08-09T16:33:11.617Z,969.1
2023-08-09T16:37:53.928Z,969.1
2023-08-09T16:42:35.824Z,969.1
2023-08-09T16:47:17.445Z,969.2
2023-08-09T16:51:59.816Z,969.2
2023-08-09T16:56:42.213Z,969.2
2023-08-09T17:01:24.648Z,969.2
2023-08-09T17:06:07.318Z,969.3
2023-08-09T17:15:32.086Z,969.2
2023-08-09T17:20:14.592Z,969.2
2023-08-09T17:24:57.152Z,969.2
2023-08-09T17:29:39.579Z,969.3
2023-08-09T17:34:22.115Z,969.4
2023-08-09T17:39:04.480Z,969.4
2023-08-09T17:43:47.141Z,969.3
2023-08-09T17:48:29.527Z,969.3
2023-08-09T17:53:12.062Z,969.4
2023-08-09T18:02:36.032Z,969.6
2023-08-09T18:07:18.637Z,969.6
2023-08-09T18:12:01.086Z,969.7
2023-08-09T18:16:43.519Z,969.8
2023-08-09T18:21:26.024Z,969.8
2023-08-09T18:26:08.602Z,969.9
2023-08-09T18:30:51.245Z,970
2023-08-09T18:35:33.501Z,970
2023-08-09T18:40:16.009Z,970
2023-08-09T18:49:41.107Z,970.1
2023-08-09T18:54:23.383Z,970.2
2023-08-09T18:59:05.863Z,970.3
2023-08-09T19:03:48.443Z,970.3
2023-08-09T19:08:30.893Z,970.5
2023-08-09T19:13:13.281Z,970.5
2023-08-09T19:17:55.785Z,970.5
2023-08-09T19:22:38.323Z,970.6
2023-08-09T19:27:20.807Z,970.7
2023-08-09T19:36:45.746Z,970.8
2023-08-09T19:41:28.179Z,970.7
2023-08-09T19:46:10.765Z,970.8
2023-08-09T19:50:53.217Z,970.9
2023-08-09T19:55:35.722Z,970.9
2023-08-09T20:00:18.128Z,970.9
2023-08-09T20:05:00.864Z,971
2023-08-09T20:09:43.210Z,971
2023-08-09T20:14:25.647Z,971
2023-08-09T20:23:50.560Z,971.1
2023-08-09T20:28:32.148Z,971.1
2023-08-09T20:33:14.702Z,971.1
2023-08-09T20:37:57.325Z,971.1
2023-08-09T20:42:39.678Z,971.2
2023-08-09T20:47:22.149Z,971.3
2023-08-09T20:52:04.653Z,971.3
2023-08-09T20:56:47.204Z,971.4
2023-08-09T21:01:29.592Z,971.4
2023-08-09T21:10:54.506Z,971.4
2023-08-09T21:15:37.017Z,971.5
2023-08-09T21:20:19.514Z,971.5
2023-08-09T21:25:01.955Z,971.6
2023-08-09T21:29:44.626Z,971.5
2023-08-09T21:34:26.961Z,971.5
2023-08-09T21:39:09.440Z,971.5
2023-08-09T21:43:52.012Z,971.5
2023-08-09T21:48:34.484Z,971.5
2023-08-09T21:57:59.357Z,971.5
2023-08-09T22:02:41.914Z,971.5
2023-08-09T22:07:24.406Z,971.5
2023-08-09T22:12:06.827Z,971.6
2023-08-09T22:16:49.392Z,971.6
2023-08-09T22:21:31.856Z,971.7
2023-08-09T22:26:13.425Z,971.7
2023-08-09T22:30:55.954Z,971.6
2023-08-09T22:35:38.453Z,971.7
2023-08-09T22:45:03.410Z,971.7
2023-08-09T22:49:45.964Z,971.8
2023-08-09T22:54:28.463Z,971.8
2023-08-09T22:59:10.892Z,971.8
2023-08-09T23:03:53.328Z,971.8
2023-08-09T23:08:35.840Z,971.8
2023-08-09T23:13:18.245Z,971.8
2023-08-09T23:18:00.859Z,971.8
2023-08-09T23:22:43.417Z,971.9
2023-08-09T23:32:07.505Z,972
2023-08-09T23:36:50.041Z,972
2023-08-09T23:41:32.397Z,972.1
2023-08-09T23:46:14.980Z,972
2023-08-09T23:50:57.240Z,972
2023-08-09T23:55:39.776Z,972
